createdAt,value
2018-02-02T00:00:48.785Z,992.15
2018-02-02T00:01:49.380Z,992.15
2018-02-02T00:02:49.971Z,992.16
2018-02-02T00:03:50.577Z,992.15
2018-02-02T00:04:51.168Z,992.18
2018-02-02T00:05:51.752Z,992.06
2018-02-02T00:06:52.347Z,992.17
2018-02-02T00:07:52.950Z,992.17
2018-02-02T00:08:53.539Z,992.10
2018-02-02T00:09:54.129Z,992.16
2018-02-02T00:10:54.731Z,992.10
2018-02-02T00:11:55.330Z,992.11
2018-02-02T00:12:55.928Z,992.07
2018-02-02T00:13:56.521Z,992.08
2018-02-02T00:14:57.115Z,992.09
2018-02-02T00:15:57.695Z,992.01
2018-02-02T00:16:58.284Z,992.03
2018-02-02T00:17:58.877Z,992.08
2018-02-02T00:18:59.471Z,992.05
2018-02-02T00:20:00.068Z,992.08
2018-02-02T00:21:00.654Z,992.09
2018-02-02T00:22:01.242Z,992.10
2018-02-02T00:23:01.832Z,992.11
2018-02-02T00:24:02.427Z,992.10
2018-02-02T00:25:03.022Z,992.14
2018-02-02T00:26:03.625Z,992.15
2018-02-02T00:27:04.219Z,992.14
2018-02-02T00:28:04.813Z,992.11
2018-02-02T00:29:05.400Z,992.06
2018-02-02T00:30:05.988Z,992.05
2018-02-02T00:31:06.576Z,992.11
2018-02-02T00:32:07.164Z,992.07
2018-02-02T00:33:07.759Z,992.10
2018-02-02T00:34:08.351Z,991.98
2018-02-02T00:35:08.946Z,992.02
2018-02-02T00:36:09.550Z,992.04
2018-02-02T00:37:10.147Z,992.02
2018-02-02T00:38:10.732Z,991.98
2018-02-02T00:39:11.321Z,991.99
2018-02-02T00:40:11.905Z,991.95
2018-02-02T00:41:12.495Z,991.93
2018-02-02T00:42:13.094Z,991.98
2018-02-02T00:43:13.684Z,991.93
2018-02-02T00:44:14.282Z,991.92
2018-02-02T00:45:14.870Z,991.89
2018-02-02T00:46:15.463Z,991.92
2018-02-02T00:47:16.052Z,991.91
2018-02-02T00:48:16.638Z,991.93
2018-02-02T00:49:17.230Z,991.94
2018-02-02T00:50:17.834Z,991.90
2018-02-02T00:51:18.422Z,991.89
2018-02-02T00:52:19.029Z,991.87
2018-02-02T00:53:19.621Z,991.88
2018-02-02T00:54:20.215Z,991.91
2018-02-02T00:55:20.804Z,991.87
2018-02-02T00:56:21.398Z,991.86
2018-02-02T00:57:21.991Z,991.87
2018-02-02T00:58:22.583Z,991.86
2018-02-02T00:59:23.171Z,991.86
2018-02-02T01:01:07.986Z,991.83
2018-02-02T01:02:08.578Z,991.85
2018-02-02T01:03:09.162Z,991.86
2018-02-02T01:04:09.756Z,991.83
2018-02-02T01:05:10.342Z,991.82
2018-02-02T01:06:10.929Z,991.74
2018-02-02T01:07:11.519Z,991.79
2018-02-02T01:08:12.113Z,991.81
2018-02-02T01:09:12.711Z,991.77
2018-02-02T01:10:13.302Z,991.76
2018-02-02T01:11:13.902Z,991.79
2018-02-02T01:12:14.494Z,991.75
2018-02-02T01:13:15.085Z,991.76
2018-02-02T01:14:15.674Z,991.76
2018-02-02T01:15:16.267Z,991.69
2018-02-02T01:16:16.857Z,991.72
2018-02-02T01:17:17.446Z,991.73
2018-02-02T01:18:18.044Z,991.69
2018-02-02T01:19:18.631Z,991.71
2018-02-02T01:20:19.218Z,991.77
2018-02-02T01:21:19.805Z,991.81
2018-02-02T01:22:20.402Z,991.71
2018-02-02T01:23:20.993Z,991.74
2018-02-02T01:24:21.591Z,991.69
2018-02-02T01:25:22.185Z,991.68
2018-02-02T01:26:22.770Z,991.67
2018-02-02T01:27:23.362Z,991.64
2018-02-02T01:28:23.947Z,991.69
2018-02-02T01:29:24.545Z,991.65
2018-02-02T01:30:25.138Z,991.61
2018-02-02T01:31:25.727Z,991.62
2018-02-02T01:32:26.317Z,991.64
2018-02-02T01:33:26.904Z,991.66
2018-02-02T01:34:27.491Z,991.67
2018-02-02T01:35:28.089Z,991.70
2018-02-02T01:36:28.677Z,991.73
2018-02-02T01:37:29.271Z,991.73
2018-02-02T01:38:29.871Z,991.68
2018-02-02T01:39:30.468Z,991.71
2018-02-02T01:40:31.058Z,991.69
2018-02-02T01:41:31.655Z,991.68
2018-02-02T01:42:32.248Z,991.70
2018-02-02T01:43:32.847Z,991.67
2018-02-02T01:44:33.438Z,991.57
2018-02-02T01:45:34.033Z,991.62
2018-02-02T01:46:34.624Z,991.65
2018-02-02T01:47:35.217Z,991.63
2018-02-02T01:48:35.816Z,991.55
2018-02-02T01:49:36.404Z,991.64
2018-02-02T01:50:37.000Z,991.61
2018-02-02T01:51:37.583Z,991.62
2018-02-02T01:52:38.179Z,991.63
2018-02-02T01:53:38.772Z,991.60
2018-02-02T01:54:39.365Z,991.64
2018-02-02T01:55:39.955Z,991.62
2018-02-02T01:56:40.550Z,991.66
2018-02-02T01:57:41.140Z,991.64
2018-02-02T01:58:41.732Z,991.63
2018-02-02T01:59:42.320Z,991.66
2018-02-02T02:00:42.914Z,991.62
2018-02-02T02:01:43.510Z,991.61
2018-02-02T02:02:44.108Z,991.52
2018-02-02T02:03:44.704Z,991.63
2018-02-02T02:04:45.300Z,991.50
2018-02-02T02:05:45.888Z,991.50
2018-02-02T02:06:46.485Z,991.56
2018-02-02T02:07:47.138Z,991.52
2018-02-02T02:08:47.677Z,991.54
2018-02-02T02:09:48.271Z,991.53
2018-02-02T02:10:48.856Z,991.49
2018-02-02T02:11:49.451Z,991.54
2018-02-02T02:12:50.045Z,991.59
2018-02-02T02:13:50.642Z,991.58
2018-02-02T02:14:51.238Z,991.56
2018-02-02T02:15:51.833Z,991.57
2018-02-02T02:16:52.416Z,991.49
2018-02-02T02:17:53.007Z,991.52
2018-02-02T02:18:53.600Z,991.53
2018-02-02T02:19:54.201Z,991.52
2018-02-02T02:20:54.806Z,991.53
2018-02-02T02:21:55.415Z,991.50
2018-02-02T02:22:55.997Z,991.54
2018-02-02T02:23:56.591Z,991.49
2018-02-02T02:24:57.189Z,991.52
2018-02-02T02:25:57.773Z,991.47
2018-02-02T02:26:58.367Z,991.45
2018-02-02T02:27:58.954Z,991.45
2018-02-02T02:28:59.547Z,991.47
2018-02-02T02:30:00.134Z,991.47
2018-02-02T02:31:00.733Z,991.45
2018-02-02T02:32:01.323Z,991.42
2018-02-02T02:33:01.975Z,991.39
2018-02-02T02:34:02.507Z,991.34
2018-02-02T02:35:03.106Z,991.36
2018-02-02T02:36:03.702Z,991.34
2018-02-02T02:37:04.302Z,991.37
2018-02-02T02:38:04.904Z,991.38
2018-02-02T02:39:05.492Z,991.33
2018-02-02T02:40:06.090Z,991.38
2018-02-02T02:41:06.688Z,991.37
2018-02-02T02:42:07.289Z,991.30
2018-02-02T02:43:07.873Z,991.41
2018-02-02T02:44:08.466Z,991.32
2018-02-02T02:45:09.064Z,991.37
2018-02-02T02:46:09.663Z,991.28
2018-02-02T02:47:10.260Z,991.35
2018-02-02T02:48:10.856Z,991.30
2018-02-02T02:49:11.446Z,991.37
2018-02-02T02:50:12.037Z,991.32
2018-02-02T02:51:12.632Z,991.34
2018-02-02T02:52:13.218Z,991.35
2018-02-02T02:53:13.801Z,991.32
2018-02-02T02:54:14.396Z,991.32
2018-02-02T02:55:14.983Z,991.35
2018-02-02T02:56:15.576Z,991.36
2018-02-02T02:57:16.173Z,991.29
2018-02-02T02:58:16.749Z,991.26
2018-02-02T02:59:17.338Z,991.30
2018-02-02T03:00:17.925Z,991.29
2018-02-02T03:01:18.511Z,991.30
2018-02-02T03:02:19.106Z,991.32
2018-02-02T03:03:19.694Z,991.30
2018-02-02T03:04:20.287Z,991.35
2018-02-02T03:05:20.877Z,991.33
2018-02-02T03:06:21.464Z,991.34
2018-02-02T03:07:22.054Z,991.31
2018-02-02T03:08:22.651Z,991.36
2018-02-02T03:09:23.249Z,991.29
2018-02-02T03:10:23.848Z,991.36
2018-02-02T03:11:24.438Z,991.33
2018-02-02T03:12:25.032Z,991.35
2018-02-02T03:13:25.633Z,991.37
2018-02-02T03:14:26.220Z,991.36
2018-02-02T03:15:26.814Z,991.34
2018-02-02T03:16:27.409Z,991.38
2018-02-02T03:17:27.997Z,991.33
2018-02-02T03:18:28.590Z,991.39
2018-02-02T03:19:29.194Z,991.44
2018-02-02T03:20:29.787Z,991.41
2018-02-02T03:21:30.379Z,991.40
2018-02-02T03:22:30.971Z,991.44
2018-02-02T03:23:31.571Z,991.45
2018-02-02T03:24:32.166Z,991.45
2018-02-02T03:25:32.767Z,991.45
2018-02-02T03:26:33.356Z,991.46
2018-02-02T03:27:33.951Z,991.43
2018-02-02T03:28:34.546Z,991.43
2018-02-02T03:29:35.139Z,991.42
2018-02-02T03:30:35.736Z,991.43
2018-02-02T03:31:36.330Z,991.47
2018-02-02T03:32:36.917Z,991.46
2018-02-02T03:33:37.518Z,991.46
2018-02-02T03:34:38.112Z,991.43
2018-02-02T03:35:38.706Z,991.42
2018-02-02T03:36:39.326Z,991.47
2018-02-02T03:37:39.896Z,991.27
2018-02-02T03:38:40.490Z,991.42
2018-02-02T03:39:41.086Z,991.49
2018-02-02T03:40:41.673Z,991.49
2018-02-02T03:41:42.262Z,991.58
2018-02-02T03:42:42.853Z,991.57
2018-02-02T03:43:43.438Z,991.56
2018-02-02T03:44:44.026Z,991.60
2018-02-02T03:45:44.622Z,991.63
2018-02-02T03:46:45.200Z,991.58
2018-02-02T03:47:45.797Z,991.53
2018-02-02T03:48:46.390Z,991.58
2018-02-02T03:49:46.979Z,991.58
2018-02-02T03:50:47.564Z,991.67
2018-02-02T03:51:48.157Z,991.74
2018-02-02T03:52:48.744Z,991.69
2018-02-02T03:53:49.336Z,991.67
2018-02-02T03:54:49.921Z,991.62
2018-02-02T03:55:50.516Z,991.66
2018-02-02T03:56:51.116Z,991.66
2018-02-02T03:57:51.708Z,991.59
2018-02-02T03:58:52.309Z,991.64
2018-02-02T03:59:52.888Z,991.60
2018-02-02T04:00:53.483Z,991.58
2018-02-02T04:01:54.078Z,991.62
2018-02-02T04:02:54.668Z,991.64
2018-02-02T04:03:55.265Z,991.60
2018-02-02T04:04:55.865Z,991.64
2018-02-02T04:05:56.454Z,991.66
2018-02-02T04:06:57.041Z,991.72
2018-02-02T04:07:57.636Z,991.68
2018-02-02T04:08:58.228Z,991.70
2018-02-02T04:09:58.817Z,991.67
2018-02-02T04:10:59.411Z,991.68
2018-02-02T04:12:00.007Z,991.76
2018-02-02T04:13:00.591Z,991.73
2018-02-02T04:14:01.182Z,991.68
2018-02-02T04:15:01.776Z,991.76
2018-02-02T04:16:02.363Z,991.72
2018-02-02T04:17:02.960Z,991.76
2018-02-02T04:18:03.552Z,991.75
2018-02-02T04:19:04.137Z,991.74
2018-02-02T04:20:04.733Z,991.73
2018-02-02T04:21:05.330Z,991.76
2018-02-02T04:22:05.928Z,991.77
2018-02-02T04:23:06.524Z,991.72
2018-02-02T04:24:07.119Z,991.80
2018-02-02T04:25:07.713Z,991.76
2018-02-02T04:26:08.313Z,991.68
2018-02-02T04:27:08.913Z,991.76
2018-02-02T04:28:09.510Z,991.73
2018-02-02T04:29:10.111Z,991.73
2018-02-02T04:30:10.707Z,991.71
2018-02-02T04:31:11.296Z,991.71
2018-02-02T04:32:11.890Z,991.66
2018-02-02T04:33:12.485Z,991.67
2018-02-02T04:34:13.089Z,991.63
2018-02-02T04:35:13.682Z,991.70
2018-02-02T04:36:14.282Z,991.73
2018-02-02T04:37:14.876Z,991.76
2018-02-02T04:38:15.463Z,991.76
2018-02-02T04:39:16.057Z,991.78
2018-02-02T04:40:16.645Z,991.79
2018-02-02T04:41:17.237Z,991.74
2018-02-02T04:42:17.826Z,991.77
2018-02-02T04:43:18.419Z,991.73
2018-02-02T04:44:19.008Z,991.71
2018-02-02T04:45:19.607Z,991.75
2018-02-02T04:46:20.194Z,991.75
2018-02-02T04:47:20.783Z,991.73
2018-02-02T04:48:21.384Z,991.73
2018-02-02T04:49:21.968Z,991.70
2018-02-02T04:50:22.561Z,991.71
2018-02-02T04:51:23.146Z,991.62
2018-02-02T04:52:23.742Z,991.67
2018-02-02T04:53:24.333Z,991.66
2018-02-02T04:54:24.927Z,991.69
2018-02-02T04:55:25.519Z,991.71
2018-02-02T04:56:26.118Z,991.71
2018-02-02T04:57:26.712Z,991.71
2018-02-02T04:58:27.306Z,991.70
2018-02-02T04:59:27.895Z,991.65
2018-02-02T05:00:28.481Z,991.66
2018-02-02T05:01:29.075Z,991.68
2018-02-02T05:02:29.657Z,991.63
2018-02-02T05:03:30.260Z,991.66
2018-02-02T05:04:30.853Z,991.67
2018-02-02T05:05:31.446Z,991.66
2018-02-02T05:06:32.045Z,991.64
2018-02-02T05:07:32.641Z,991.65
2018-02-02T05:08:33.221Z,991.65
2018-02-02T05:09:33.814Z,991.67
2018-02-02T05:10:34.410Z,991.66
2018-02-02T05:11:35.008Z,991.72
2018-02-02T05:12:35.606Z,991.69
2018-02-02T05:13:36.203Z,991.71
2018-02-02T05:14:36.796Z,991.69
2018-02-02T05:15:37.379Z,991.65
2018-02-02T05:16:37.970Z,991.65
2018-02-02T05:17:38.566Z,991.63
2018-02-02T05:18:39.156Z,991.63
2018-02-02T05:19:39.748Z,991.64
2018-02-02T05:20:40.345Z,991.64
2018-02-02T05:21:40.945Z,991.68
2018-02-02T05:22:41.540Z,991.66
2018-02-02T05:23:42.128Z,991.66
2018-02-02T05:24:42.730Z,991.62
2018-02-02T05:25:43.320Z,991.61
2018-02-02T05:26:43.906Z,991.59
2018-02-02T05:27:44.493Z,991.56
2018-02-02T05:28:45.109Z,991.51
2018-02-02T05:29:45.676Z,991.51
2018-02-02T05:30:46.272Z,991.48
2018-02-02T05:31:46.870Z,991.48
2018-02-02T05:32:47.463Z,991.47
2018-02-02T05:33:48.058Z,991.47
2018-02-02T05:34:48.648Z,991.42
2018-02-02T05:35:49.232Z,991.44
2018-02-02T05:36:49.825Z,991.45
2018-02-02T05:37:50.413Z,991.50
2018-02-02T05:38:51.009Z,991.57
2018-02-02T05:39:51.600Z,991.58
2018-02-02T05:40:52.184Z,991.59
2018-02-02T05:41:52.776Z,991.66
2018-02-02T05:42:53.374Z,991.63
2018-02-02T05:43:53.969Z,991.61
2018-02-02T05:44:54.568Z,991.65
2018-02-02T05:45:55.158Z,991.56
2018-02-02T05:46:55.751Z,991.53
2018-02-02T05:47:56.339Z,991.58
2018-02-02T05:48:56.926Z,991.58
2018-02-02T05:49:57.515Z,991.56
2018-02-02T05:50:58.109Z,991.54
2018-02-02T05:51:58.701Z,991.56
2018-02-02T05:52:59.290Z,991.53
2018-02-02T05:53:59.881Z,991.58
2018-02-02T05:55:00.471Z,991.49
2018-02-02T05:56:01.065Z,991.49
2018-02-02T05:57:01.650Z,991.51
2018-02-02T05:58:02.240Z,991.50
2018-02-02T05:59:02.839Z,991.48
2018-02-02T06:00:03.429Z,991.44
2018-02-02T06:01:04.013Z,991.48
2018-02-02T06:02:04.626Z,991.40
2018-02-02T06:03:05.212Z,991.43
2018-02-02T06:04:05.800Z,991.45
2018-02-02T06:05:06.395Z,991.48
2018-02-02T06:06:06.996Z,991.45
2018-02-02T06:07:07.595Z,991.41
2018-02-02T06:08:08.184Z,991.44
2018-02-02T06:09:08.775Z,991.40
2018-02-02T06:10:09.385Z,991.42
2018-02-02T06:11:09.968Z,991.41
2018-02-02T06:12:10.557Z,991.40
2018-02-02T06:13:11.150Z,991.40
2018-02-02T06:14:11.741Z,991.36
2018-02-02T06:15:12.344Z,991.41
2018-02-02T06:16:12.943Z,991.38
2018-02-02T06:17:13.589Z,991.42
2018-02-02T06:18:14.149Z,991.48
2018-02-02T06:19:14.737Z,991.47
2018-02-02T06:20:15.340Z,991.47
2018-02-02T06:21:15.923Z,991.47
2018-02-02T06:22:16.521Z,991.46
2018-02-02T06:23:17.162Z,991.45
2018-02-02T06:24:17.717Z,991.45
2018-02-02T06:25:18.355Z,991.45
2018-02-02T06:26:18.886Z,991.43
2018-02-02T06:27:19.480Z,991.45
2018-02-02T06:28:20.065Z,991.47
2018-02-02T06:29:20.655Z,991.35
2018-02-02T06:30:21.242Z,991.49
2018-02-02T06:31:21.834Z,991.42
2018-02-02T06:32:22.420Z,991.54
2018-02-02T06:33:23.008Z,991.39
2018-02-02T06:34:23.596Z,991.34
2018-02-02T06:35:24.198Z,991.40
2018-02-02T06:36:24.793Z,991.33
2018-02-02T06:37:25.396Z,991.43
2018-02-02T06:38:25.979Z,991.43
2018-02-02T06:39:26.580Z,991.37
2018-02-02T06:40:27.177Z,991.43
2018-02-02T06:41:27.774Z,991.49
2018-02-02T06:42:28.360Z,991.46
2018-02-02T06:43:28.999Z,991.44
2018-02-02T06:44:29.596Z,991.51
2018-02-02T06:45:30.189Z,991.36
2018-02-02T06:46:30.790Z,991.48
2018-02-02T06:48:15.595Z,991.43
2018-02-02T06:49:16.198Z,991.37
2018-02-02T06:50:16.824Z,991.43
2018-02-02T06:51:17.475Z,991.39
2018-02-02T06:52:18.035Z,991.42
2018-02-02T06:53:18.637Z,991.40
2018-02-02T06:54:19.241Z,991.45
2018-02-02T06:55:19.899Z,991.44
2018-02-02T06:56:20.474Z,991.45
2018-02-02T06:57:21.075Z,991.42
2018-02-02T06:58:21.677Z,991.42
2018-02-02T06:59:22.281Z,991.41
2018-02-02T07:00:22.884Z,991.47
2018-02-02T07:01:23.489Z,991.52
2018-02-02T07:02:24.093Z,991.40
2018-02-02T07:03:24.721Z,991.46
2018-02-02T07:04:25.345Z,991.45
2018-02-02T07:05:25.953Z,991.41
2018-02-02T07:06:26.530Z,991.43
2018-02-02T07:07:27.124Z,991.43
2018-02-02T07:08:27.721Z,991.45
2018-02-02T07:09:28.314Z,991.44
2018-02-02T07:10:28.914Z,991.51
2018-02-02T07:11:29.508Z,991.44
2018-02-02T07:12:30.188Z,991.42
2018-02-02T07:13:30.779Z,991.42
2018-02-02T07:14:31.373Z,991.44
2018-02-02T07:15:31.973Z,991.42
2018-02-02T07:16:32.573Z,991.42
2018-02-02T07:17:33.158Z,991.40
2018-02-02T07:18:33.755Z,991.43
2018-02-02T07:19:34.357Z,991.52
2018-02-02T07:20:34.953Z,991.42
2018-02-02T07:21:35.552Z,991.46
2018-02-02T07:22:36.142Z,991.47
2018-02-02T07:23:36.739Z,991.46
2018-02-02T07:24:37.385Z,991.49
2018-02-02T07:25:37.946Z,991.46
2018-02-02T07:26:38.538Z,991.51
2018-02-02T07:27:39.124Z,991.41
2018-02-02T07:28:39.717Z,991.46
2018-02-02T07:29:40.321Z,991.51
2018-02-02T07:30:40.924Z,991.51
2018-02-02T07:31:41.523Z,991.54
2018-02-02T07:32:42.117Z,991.54
2018-02-02T07:33:42.713Z,991.56
2018-02-02T07:34:43.309Z,991.48
2018-02-02T07:35:43.917Z,991.52
2018-02-02T07:36:44.517Z,991.47
2018-02-02T07:37:45.114Z,991.48
2018-02-02T07:38:45.706Z,991.53
2018-02-02T07:39:46.303Z,991.49
2018-02-02T07:40:47.099Z,991.50
2018-02-02T07:41:47.697Z,991.50
2018-02-02T07:42:48.293Z,991.47
2018-02-02T07:43:48.887Z,991.49
2018-02-02T07:44:49.477Z,991.48
2018-02-02T07:45:50.069Z,991.42
2018-02-02T07:46:50.661Z,991.43
2018-02-02T07:47:51.256Z,991.44
2018-02-02T07:48:51.857Z,991.46
2018-02-02T07:49:52.450Z,991.50
2018-02-02T07:50:53.042Z,991.48
2018-02-02T07:51:53.648Z,991.35
2018-02-02T07:52:54.250Z,991.37
2018-02-02T07:53:54.854Z,991.45
2018-02-02T07:54:55.439Z,991.38
2018-02-02T07:55:56.036Z,991.38
2018-02-02T07:56:56.637Z,991.41
2018-02-02T07:57:57.239Z,991.40
2018-02-02T07:58:57.836Z,991.32
2018-02-02T07:59:58.448Z,991.40
2018-02-02T08:00:59.043Z,991.42
2018-02-02T08:01:59.643Z,991.40
2018-02-02T08:03:00.243Z,991.43
2018-02-02T08:04:00.843Z,991.44
2018-02-02T08:05:01.454Z,991.33
2018-02-02T08:06:02.048Z,991.44
2018-02-02T08:07:02.642Z,991.41
2018-02-02T08:08:03.238Z,991.38
2018-02-02T08:09:03.853Z,991.51
2018-02-02T08:10:04.434Z,991.42
2018-02-02T08:11:05.033Z,991.49
2018-02-02T08:12:05.629Z,991.51
2018-02-02T08:13:06.227Z,991.39
2018-02-02T08:14:06.825Z,991.48
2018-02-02T08:15:07.421Z,991.42
2018-02-02T08:16:08.011Z,991.49
2018-02-02T08:17:08.617Z,991.43
2018-02-02T08:18:09.209Z,991.45
2018-02-02T08:19:09.809Z,991.45
2018-02-02T08:20:10.407Z,991.47
2018-02-02T08:21:11.007Z,991.50
2018-02-02T08:22:11.607Z,991.47
2018-02-02T08:23:12.201Z,991.53
2018-02-02T08:24:12.797Z,991.51
2018-02-02T08:25:13.419Z,991.42
2018-02-02T08:26:14.016Z,991.57
2018-02-02T08:27:14.603Z,991.55
2018-02-02T08:28:15.197Z,991.54
2018-02-02T08:29:15.799Z,991.60
2018-02-02T08:30:16.401Z,991.60
2018-02-02T08:31:17.052Z,991.60
2018-02-02T08:32:17.655Z,991.52
2018-02-02T08:33:18.248Z,991.57
2018-02-02T08:34:18.838Z,991.42
2018-02-02T08:35:19.430Z,991.58
2018-02-02T08:36:20.024Z,991.58
2018-02-02T08:37:20.616Z,991.59
2018-02-02T08:38:21.210Z,991.60
2018-02-02T08:39:21.817Z,991.58
2018-02-02T08:40:22.408Z,991.63
2018-02-02T08:41:23.001Z,991.58
2018-02-02T08:42:23.624Z,991.66
2018-02-02T08:43:24.214Z,991.63
2018-02-02T08:44:24.821Z,991.65
2018-02-02T08:45:25.421Z,991.61
2018-02-02T08:46:26.021Z,991.63
2018-02-02T08:47:26.639Z,991.68
2018-02-02T08:48:27.230Z,991.65
2018-02-02T08:49:27.849Z,991.68
2018-02-02T08:50:28.442Z,991.66
2018-02-02T08:51:29.053Z,991.75
2018-02-02T08:52:29.655Z,991.73
2018-02-02T08:53:30.273Z,991.72
2018-02-02T08:54:30.873Z,991.70
2018-02-02T08:55:31.537Z,991.69
2018-02-02T08:56:32.144Z,991.72
2018-02-02T08:57:32.742Z,991.68
2018-02-02T08:58:33.355Z,991.66
2018-02-02T08:59:33.948Z,991.65
2018-02-02T09:00:34.561Z,991.83
2018-02-02T09:01:35.162Z,991.75
2018-02-02T09:02:35.785Z,991.79
2018-02-02T09:03:36.370Z,991.74
2018-02-02T09:04:37.037Z,991.76
2018-02-02T09:05:37.613Z,991.82
2018-02-02T09:06:38.224Z,991.81
2018-02-02T09:07:38.849Z,991.88
2018-02-02T09:08:39.490Z,991.86
2018-02-02T09:09:40.079Z,991.96
2018-02-02T09:10:40.683Z,991.99
2018-02-02T09:11:41.296Z,992.03
2018-02-02T09:12:41.902Z,991.99
2018-02-02T09:13:42.766Z,991.94
2018-02-02T09:14:43.349Z,992.02
2018-02-02T09:15:43.935Z,992.08
2018-02-02T09:16:44.532Z,992.09
2018-02-02T09:17:45.128Z,992.11
2018-02-02T09:18:45.731Z,992.15
2018-02-02T09:19:46.338Z,992.13
2018-02-02T09:20:46.933Z,992.09
2018-02-02T09:21:47.526Z,992.09
2018-02-02T09:22:48.202Z,992.10
2018-02-02T09:23:48.803Z,992.12
2018-02-02T09:24:49.404Z,992.17
2018-02-02T09:25:50.008Z,992.14
2018-02-02T09:26:50.637Z,992.09
2018-02-02T09:27:51.216Z,992.16
2018-02-02T09:28:51.878Z,992.12
2018-02-02T09:29:52.489Z,992.18
2018-02-02T09:30:53.178Z,992.25
2018-02-02T09:31:53.870Z,992.23
2018-02-02T09:32:54.527Z,992.24
2018-02-02T09:33:55.201Z,992.28
2018-02-02T09:34:55.810Z,992.26
2018-02-02T09:35:56.405Z,992.25
2018-02-02T09:36:57.006Z,992.25
2018-02-02T09:37:57.608Z,992.28
2018-02-02T09:38:58.217Z,992.31
2018-02-02T09:39:58.819Z,992.29
2018-02-02T09:40:59.417Z,992.30
2018-02-02T09:42:00.023Z,992.37
2018-02-02T09:43:00.626Z,992.30
2018-02-02T09:44:01.228Z,992.38
2018-02-02T09:45:01.834Z,992.41
2018-02-02T09:46:02.430Z,992.41
2018-02-02T09:47:03.029Z,992.38
2018-02-02T09:48:03.823Z,992.38
2018-02-02T09:49:04.325Z,992.37
2018-02-02T09:50:04.934Z,992.34
2018-02-02T09:51:05.533Z,992.41
2018-02-02T09:52:06.143Z,992.41
2018-02-02T09:53:06.743Z,992.41
2018-02-02T09:54:07.345Z,992.39
2018-02-02T09:55:07.950Z,992.38
2018-02-02T09:56:08.548Z,992.33
2018-02-02T09:57:09.152Z,992.38
2018-02-02T09:58:09.758Z,992.38
2018-02-02T09:59:10.362Z,992.37
2018-02-02T10:00:10.969Z,992.39
2018-02-02T10:01:11.572Z,992.38
2018-02-02T10:02:12.174Z,992.38
2018-02-02T10:03:13.774Z,992.37
2018-02-02T10:04:14.378Z,992.41
2018-02-02T10:05:14.970Z,992.42
2018-02-02T10:06:15.565Z,992.38
2018-02-02T10:07:16.162Z,992.43
2018-02-02T10:08:16.760Z,992.45
2018-02-02T10:09:17.371Z,992.42
2018-02-02T10:10:17.981Z,992.41
2018-02-02T10:11:18.581Z,992.46
2018-02-02T10:12:19.184Z,992.41
2018-02-02T10:13:19.787Z,992.47
2018-02-02T10:14:20.386Z,992.50
2018-02-02T10:15:20.984Z,992.53
2018-02-02T10:16:21.578Z,992.54
2018-02-02T10:17:22.172Z,992.45
2018-02-02T10:18:22.780Z,992.54
2018-02-02T10:19:23.386Z,992.59
2018-02-02T10:20:23.992Z,992.63
2018-02-02T10:21:24.586Z,992.66
2018-02-02T10:22:25.196Z,992.67
2018-02-02T10:23:25.804Z,992.65
2018-02-02T10:24:26.412Z,992.70
2018-02-02T10:25:27.019Z,992.68
2018-02-02T10:26:27.616Z,992.70
2018-02-02T10:27:28.216Z,992.71
2018-02-02T10:28:29.047Z,992.72
2018-02-02T10:29:29.652Z,992.66
2018-02-02T10:30:30.237Z,992.66
2018-02-02T10:31:30.838Z,992.64
2018-02-02T10:32:31.441Z,992.70
2018-02-02T10:33:32.038Z,992.66
2018-02-02T10:34:32.640Z,992.63
2018-02-02T10:35:33.239Z,992.68
2018-02-02T10:36:33.839Z,992.70
2018-02-02T10:37:34.436Z,992.75
2018-02-02T10:38:35.036Z,992.77
2018-02-02T10:39:35.633Z,992.81
2018-02-02T10:40:36.231Z,992.79
2018-02-02T10:41:36.832Z,992.81
2018-02-02T10:42:37.425Z,992.76
2018-02-02T10:43:38.025Z,992.75
2018-02-02T10:44:38.623Z,992.86
2018-02-02T10:45:39.226Z,992.79
2018-02-02T10:46:39.842Z,992.81
2018-02-02T10:47:40.429Z,992.80
2018-02-02T10:48:41.022Z,992.81
2018-02-02T10:49:41.618Z,992.76
2018-02-02T10:50:42.209Z,992.68
2018-02-02T10:51:42.814Z,992.72
2018-02-02T10:52:43.416Z,992.68
2018-02-02T10:53:44.086Z,992.63
2018-02-02T10:54:44.604Z,992.57
2018-02-02T10:55:45.259Z,992.67
2018-02-02T10:56:45.855Z,992.64
2018-02-02T10:57:46.467Z,992.64
2018-02-02T10:58:47.059Z,992.62
2018-02-02T10:59:47.659Z,992.62
2018-02-02T11:00:48.289Z,992.65
2018-02-02T11:01:48.877Z,992.51
2018-02-02T11:02:49.490Z,992.64
2018-02-02T11:03:50.096Z,992.57
2018-02-02T11:04:50.692Z,992.68
2018-02-02T11:05:51.288Z,992.64
2018-02-02T11:06:51.893Z,992.63
2018-02-02T11:07:52.496Z,992.69
2018-02-02T11:08:53.091Z,992.66
2018-02-02T11:09:53.720Z,992.68
2018-02-02T11:10:54.339Z,992.64
2018-02-02T11:11:54.936Z,992.70
2018-02-02T11:12:55.548Z,992.68
2018-02-02T11:13:56.157Z,992.70
2018-02-02T11:14:56.766Z,992.64
2018-02-02T11:15:57.378Z,992.71
2018-02-02T11:16:57.984Z,992.70
2018-02-02T11:17:58.585Z,992.70
2018-02-02T11:18:59.204Z,992.67
2018-02-02T11:19:59.807Z,992.70
2018-02-02T11:21:00.411Z,992.71
2018-02-02T11:22:01.014Z,992.69
2018-02-02T11:23:01.621Z,992.70
2018-02-02T11:24:02.213Z,992.65
2018-02-02T11:25:02.829Z,992.49
2018-02-02T11:26:03.428Z,992.63
2018-02-02T11:27:04.032Z,992.59
2018-02-02T11:28:04.678Z,992.60
2018-02-02T11:29:05.224Z,992.61
2018-02-02T11:30:05.834Z,992.64
2018-02-02T11:31:06.426Z,992.56
2018-02-02T11:32:07.027Z,992.62
2018-02-02T11:33:07.633Z,992.59
2018-02-02T11:34:08.216Z,992.59
2018-02-02T11:35:08.829Z,992.64
2018-02-02T11:36:09.433Z,992.61
2018-02-02T11:37:10.042Z,992.57
2018-02-02T11:38:10.652Z,992.60
2018-02-02T11:39:11.264Z,992.58
2018-02-02T11:40:11.870Z,992.60
2018-02-02T11:41:12.476Z,992.63
2018-02-02T11:42:13.079Z,992.61
2018-02-02T11:43:13.689Z,992.58
2018-02-02T11:44:14.309Z,992.58
2018-02-02T11:45:14.918Z,992.64
2018-02-02T11:46:15.516Z,992.62
2018-02-02T11:47:16.123Z,992.65
2018-02-02T11:48:16.735Z,992.63
2018-02-02T11:49:17.345Z,992.62
2018-02-02T11:50:17.950Z,992.67
2018-02-02T11:51:18.557Z,992.67
2018-02-02T11:52:19.151Z,992.66
2018-02-02T11:53:19.757Z,992.70
2018-02-02T11:54:20.360Z,992.67
2018-02-02T11:55:20.960Z,992.68
2018-02-02T11:56:21.571Z,992.71
2018-02-02T11:57:22.166Z,992.71
2018-02-02T11:58:22.767Z,992.71
2018-02-02T11:59:23.366Z,992.69
2018-02-02T12:00:23.962Z,992.69
2018-02-02T12:01:24.586Z,992.74
2018-02-02T12:02:25.180Z,992.67
2018-02-02T12:03:25.774Z,992.76
2018-02-02T12:04:26.380Z,992.75
2018-02-02T12:05:26.985Z,992.75
2018-02-02T12:06:27.593Z,992.76
2018-02-02T12:07:28.190Z,992.76
2018-02-02T12:08:28.796Z,992.74
2018-02-02T12:09:29.409Z,992.76
2018-02-02T12:10:30.016Z,992.75
2018-02-02T12:11:30.616Z,992.76
2018-02-02T12:12:31.224Z,992.78
2018-02-02T12:13:31.831Z,992.75
2018-02-02T12:14:32.435Z,992.80
2018-02-02T12:15:33.041Z,992.80
2018-02-02T12:16:33.659Z,992.80
2018-02-02T12:17:34.251Z,992.76
2018-02-02T12:18:34.868Z,992.81
2018-02-02T12:19:35.498Z,992.79
2018-02-02T12:20:36.077Z,992.84
2018-02-02T12:21:36.675Z,992.80
2018-02-02T12:22:37.268Z,992.87
2018-02-02T12:23:37.857Z,992.86
2018-02-02T12:24:38.459Z,992.87
2018-02-02T12:25:39.059Z,992.82
2018-02-02T12:26:39.667Z,992.80
2018-02-02T12:27:40.270Z,992.82
2018-02-02T12:28:40.946Z,992.84
2018-02-02T12:29:41.544Z,992.85
2018-02-02T12:30:42.143Z,992.87
2018-02-02T12:31:42.749Z,992.83
2018-02-02T12:32:43.365Z,992.85
2018-02-02T12:33:43.962Z,992.86
2018-02-02T12:34:44.571Z,992.85
2018-02-02T12:35:45.182Z,992.84
2018-02-02T12:36:45.790Z,992.88
2018-02-02T12:37:46.393Z,992.89